Impacts TAF Board
For situational awareness. Not to be used for flight planning purposes.
IDs:

KSLC - Salt Lake City Intl, UT, US

Issued at 2343 UTC 15 Oct 2018
Updated at 0230 UTC 16 Oct 2018
Potential Impact None Slight Moderate High
Time<<17/03Z 17/04Z 17/05Z 17/06Z 17/07Z 17/08Z 17/09Z 17/10Z 17/11Z 17/12Z 17/13Z 17/14Z 17/15Z
Type PRVL PRVL PRVL
VIS >6 >6 >6
CIG -- -- --
Cover SKC SKC SKC
FltCat VFR VFR VFR
WX -- -- --
WDir 150 150 150
WSpd 4 4 4
WGst -- -- --
Raw TAF
KSLC 152343Z 1600/1706 32011KT P6SM SKC
  FM160300 15005KT P6SM SKC
  FM161500 32005KT P6SM SKC
  FM161800 33012KT P6SM SKC
  FM170300 15004KT P6SM SKC


METAR Board
Radar Display
Forecast Discussion
For situational awareness. Not to be used for flight planning purposes.